createdAt,value
2022-10-13T00:03:23.989Z,101544.22
2022-10-13T00:13:25.222Z,101539.19
2022-10-13T00:23:26.455Z,101534.41
2022-10-13T00:33:27.908Z,101530.34
2022-10-13T00:43:47.650Z,101512.56
2022-10-13T00:53:49.170Z,101529.19
2022-10-13T01:03:50.421Z,101513.47
2022-10-13T01:14:09.743Z,101506.69
2022-10-13T01:24:26.689Z,101498.88
2022-10-13T01:34:34.091Z,101503.28
2022-10-13T01:44:38.173Z,101484.38
2022-10-13T01:54:39.508Z,101481.06
2022-10-13T02:04:49.820Z,101471.06
2022-10-13T02:14:52.768Z,101451.34
2022-10-13T02:24:53.998Z,101456.75
2022-10-13T02:34:55.257Z,101450.78
2022-10-13T02:44:56.505Z,101457.88
2022-10-13T02:54:57.746Z,101451.16
2022-10-13T03:04:59.034Z,101446.13
2022-10-13T03:15:00.593Z,101444.44
2022-10-13T03:25:01.818Z,101430.69
2022-10-13T03:35:03.169Z,101420.41
2022-10-13T03:45:05.240Z,101414.50
2022-10-13T03:55:06.614Z,101403.38
2022-10-13T04:05:08.000Z,101401.56
2022-10-13T04:15:09.582Z,101399.00
2022-10-13T04:25:10.826Z,101390.44
2022-10-13T04:35:12.097Z,101392.16
2022-10-13T04:45:13.352Z,101380.84
2022-10-13T04:55:14.633Z,101370.63
2022-10-13T05:05:15.982Z,101365.44
2022-10-13T05:15:17.274Z,101362.06
2022-10-13T05:25:18.523Z,101354.31
2022-10-13T05:35:19.752Z,101345.69
2022-10-13T05:45:21.623Z,101341.44
2022-10-13T05:55:22.904Z,101319.91
2022-10-13T06:05:25.975Z,101317.34
2022-10-13T06:15:28.310Z,101316.34
2022-10-13T06:25:29.809Z,101317.25
2022-10-13T06:35:31.077Z,101316.41
2022-10-13T06:45:32.309Z,101323.22
2022-10-13T06:55:33.631Z,101331.97
2022-10-13T07:05:34.938Z,101332.88
2022-10-13T07:15:40.072Z,101324.31
2022-10-13T07:25:41.351Z,101337.38
2022-10-13T07:35:42.612Z,101330.50
2022-10-13T07:45:43.840Z,101332.25
2022-10-13T07:55:45.078Z,101333.16
2022-10-13T08:05:46.345Z,101339.25
2022-10-13T08:15:47.693Z,101332.34
2022-10-13T08:25:49.051Z,101314.19
2022-10-13T08:35:50.543Z,101335.84
2022-10-13T08:45:52.983Z,101341.03
2022-10-13T08:55:57.434Z,101331.50
2022-10-13T09:06:17.490Z,101310.75
2022-10-13T09:16:26.110Z,101304.63
2022-10-13T09:26:27.388Z,101306.28
2022-10-13T09:36:29.066Z,101292.38
2022-10-13T09:46:35.662Z,101296.41
2022-10-13T09:56:43.535Z,101294.44
2022-10-13T10:06:45.371Z,101277.94
2022-10-13T10:16:49.875Z,101270.84
2022-10-13T10:26:55.321Z,101262.84
2022-10-13T10:37:08.456Z,101255.91
2022-10-13T10:47:27.982Z,101254.56
2022-10-13T10:57:35.028Z,101249.38
2022-10-13T11:07:39.059Z,101236.84
2022-10-13T11:17:40.958Z,101224.19
2022-10-13T11:27:42.881Z,101225.53
2022-10-13T11:38:12.674Z,101220.19
2022-10-13T11:48:16.664Z,101181.59
2022-10-13T11:58:25.201Z,101220.91
2022-10-13T12:08:27.791Z,101214.25
2022-10-13T12:18:33.812Z,101211.00
2022-10-13T12:28:50.379Z,101217.16
2022-10-13T12:38:53.998Z,101198.13
2022-10-13T12:49:03.912Z,101193.78
2022-10-13T12:59:05.293Z,101186.81
2022-10-13T13:09:15.764Z,101181.53
2022-10-13T13:19:22.292Z,101183.25
2022-10-13T13:29:23.599Z,101171.13
2022-10-13T13:39:24.887Z,101172.03
2022-10-13T13:49:26.148Z,101166.97
2022-10-13T13:59:29.160Z,101162.72
2022-10-13T14:09:30.543Z,101163.72
2022-10-13T14:19:32.299Z,101154.34
2022-10-13T14:29:33.599Z,101120.84
2022-10-13T14:39:34.840Z,101156.22
2022-10-13T14:49:36.087Z,101145.75
2022-10-13T14:59:37.318Z,101145.94
2022-10-13T15:09:52.118Z,101142.53
2022-10-13T15:19:54.591Z,101125.31
2022-10-13T15:29:55.839Z,101114.00
2022-10-13T15:39:57.814Z,101101.94
2022-10-13T15:49:59.171Z,101101.97
2022-10-13T16:00:00.415Z,101090.69
2022-10-13T16:10:01.961Z,101086.47
2022-10-13T16:20:04.059Z,101088.38
2022-10-13T16:30:05.880Z,101090.16
2022-10-13T16:40:07.533Z,101093.75
2022-10-13T16:50:09.836Z,101097.25
2022-10-13T17:00:11.551Z,101106.78
2022-10-13T17:10:12.796Z,101108.59
2022-10-13T17:20:14.102Z,101101.69
2022-10-13T17:30:15.471Z,101103.50
2022-10-13T17:40:16.800Z,101105.28
2022-10-13T17:50:18.167Z,101107.84
2022-10-13T18:00:19.624Z,101119.28
2022-10-13T18:10:21.121Z,101123.63
2022-10-13T18:20:22.400Z,101125.38
2022-10-13T18:30:23.790Z,101121.81
2022-10-13T18:40:25.042Z,101124.53
2022-10-13T18:50:26.312Z,101134.06
2022-10-13T19:00:27.607Z,101132.38
2022-10-13T19:10:29.227Z,101129.81
2022-10-13T19:20:30.486Z,101140.28
2022-10-13T19:30:31.777Z,101139.44
2022-10-13T19:40:33.036Z,101139.44
2022-10-13T19:50:34.296Z,101147.28
2022-10-13T20:00:36.018Z,101146.44
2022-10-13T20:10:39.068Z,101149.06
2022-10-13T20:20:41.225Z,101145.56
2022-10-13T20:30:42.961Z,101144.75
2022-10-13T20:40:44.936Z,101148.25
2022-10-13T20:50:46.188Z,101157.72
2022-10-13T21:00:47.470Z,101170.81
2022-10-13T21:10:49.131Z,101164.72
2022-10-13T21:20:50.419Z,101158.72
2022-10-13T21:30:58.987Z,101170.84
2022-10-13T21:41:03.151Z,101155.28
2022-10-13T21:51:14.409Z,101165.75
2022-10-13T22:01:16.751Z,101170.09
2022-10-13T22:11:18.371Z,101162.38
2022-10-13T22:21:20.809Z,101170.16
2022-10-13T22:31:22.086Z,101160.69
2022-10-13T22:41:23.438Z,101156.31
2022-10-13T22:51:25.747Z,101158.13
2022-10-13T23:01:27.112Z,101146.88
2022-10-13T23:11:28.398Z,101139.13
2022-10-13T23:21:29.962Z,101137.34
2022-10-13T23:31:31.628Z,101123.56
2022-10-13T23:41:33.042Z,101114.06
2022-10-13T23:51:34.803Z,101093.25
